createdAt,value
2023-04-01T00:00:53.150Z,1.00
2023-04-01T00:03:23.881Z,0.90
2023-04-01T00:05:52.431Z,0.93
2023-04-01T00:08:21.013Z,0.80
2023-04-01T00:10:48.833Z,0.70
2023-04-01T00:13:17.116Z,0.90
2023-04-01T00:15:45.519Z,1.00
2023-04-01T00:18:14.713Z,0.93
2023-04-01T00:20:47.681Z,0.90
2023-04-01T00:23:15.829Z,0.90
2023-04-01T00:25:43.917Z,1.00
2023-04-01T00:28:12.072Z,0.70
2023-04-01T00:30:39.811Z,0.60
2023-04-01T00:33:08.012Z,0.87
2023-04-01T00:35:36.426Z,0.80
2023-04-01T00:38:07.695Z,0.80
2023-04-01T00:40:39.343Z,0.80
2023-04-01T00:43:14.873Z,0.93
2023-04-01T00:45:45.796Z,0.83
2023-04-01T00:48:18.213Z,0.90
2023-04-01T00:50:50.328Z,0.60
2023-04-01T00:53:21.632Z,0.80
2023-04-01T00:55:56.502Z,0.90
2023-04-01T00:58:26.513Z,1.17
2023-04-01T01:00:54.507Z,0.80
2023-04-01T01:03:22.636Z,0.77
2023-04-01T01:06:09.285Z,0.70
2023-04-01T01:08:51.020Z,1.00
2023-04-01T01:11:25.285Z,0.63
2023-04-01T01:14:01.516Z,0.70
2023-04-01T01:16:33.844Z,0.67
2023-04-01T01:19:12.555Z,0.93
2023-04-01T01:22:07.051Z,1.00
2023-04-01T01:24:53.565Z,0.83
2023-04-01T01:27:23.452Z,0.83
2023-04-01T01:30:15.185Z,0.60
2023-04-01T01:33:03.643Z,0.83
2023-04-01T01:35:36.522Z,0.67
2023-04-01T01:38:08.269Z,0.93
2023-04-01T01:42:54.924Z,0.80
2023-04-01T01:45:26.135Z,0.70
2023-04-01T01:47:54.414Z,0.70
2023-04-01T01:50:24.416Z,0.90
2023-04-01T01:52:52.317Z,0.70
2023-04-01T01:55:31.221Z,0.60
2023-04-01T01:58:06.604Z,1.00
2023-04-01T02:00:35.977Z,0.60
2023-04-01T02:03:03.947Z,0.60
2023-04-01T02:05:32.901Z,0.70
2023-04-01T02:08:06.344Z,0.67
2023-04-01T02:10:38.937Z,0.50
2023-04-01T02:13:16.517Z,0.70
2023-04-01T02:15:49.829Z,0.70
2023-04-01T02:18:18.589Z,0.73
2023-04-01T02:20:46.866Z,0.70
2023-04-01T02:23:15.489Z,0.70
2023-04-01T02:25:44.921Z,0.60
2023-04-01T02:28:17.649Z,0.97
2023-04-01T02:30:46.698Z,0.50
2023-04-01T02:33:14.648Z,0.80
2023-04-01T02:35:43.035Z,0.60
2023-04-01T02:38:11.004Z,0.83
2023-04-01T02:40:48.115Z,0.50
2023-04-01T02:43:17.532Z,0.63
2023-04-01T02:45:45.631Z,0.40
2023-04-01T02:48:13.873Z,0.47
2023-04-01T02:50:41.517Z,0.90
2023-04-01T02:53:09.269Z,0.60
2023-04-01T02:55:37.867Z,0.40
2023-04-01T02:58:05.920Z,0.57
2023-04-01T03:00:35.290Z,0.50
2023-04-01T03:03:03.956Z,0.77
2023-04-01T03:05:32.022Z,0.60
2023-04-01T03:08:00.233Z,0.60
2023-04-01T03:10:28.365Z,0.90
2023-04-01T03:12:56.443Z,0.60
2023-04-01T03:15:24.697Z,0.40
2023-04-01T03:17:54.122Z,0.50
2023-04-01T03:20:22.180Z,0.60
2023-04-01T03:22:50.032Z,0.60
2023-04-01T03:25:17.983Z,0.50
2023-04-01T03:27:45.853Z,0.50
2023-04-01T03:30:13.808Z,0.50
2023-04-01T03:32:41.773Z,0.70
2023-04-01T03:35:12.100Z,0.53
2023-04-01T03:37:40.626Z,0.60
2023-04-01T03:40:09.440Z,0.67
2023-04-01T03:42:37.823Z,0.63
2023-04-01T03:45:07.656Z,0.50
2023-04-01T03:47:35.505Z,0.57
2023-04-01T03:50:03.718Z,0.60
2023-04-01T03:52:34.035Z,0.77
2023-04-01T03:55:02.674Z,0.60
2023-04-01T03:57:31.066Z,0.57
2023-04-01T04:00:00.794Z,0.60
2023-04-01T04:02:28.646Z,0.70
2023-04-01T04:04:56.481Z,0.40
2023-04-01T04:07:24.599Z,0.60
2023-04-01T04:09:56.846Z,0.60
2023-04-01T04:12:24.470Z,0.50
2023-04-01T04:14:52.205Z,0.47
2023-04-01T04:17:19.999Z,0.50
2023-04-01T04:19:48.019Z,0.53
2023-04-01T04:22:16.155Z,0.60
2023-04-01T04:24:43.854Z,0.40
2023-04-01T04:27:13.493Z,0.87
2023-04-01T04:29:41.743Z,0.80
2023-04-01T04:32:09.510Z,0.60
2023-04-01T04:34:37.405Z,0.80
2023-04-01T04:37:05.541Z,0.50
2023-04-01T04:39:33.296Z,0.60
2023-04-01T04:42:01.127Z,0.60
2023-04-01T04:44:30.517Z,0.70
2023-04-01T04:46:58.715Z,0.60
2023-04-01T04:49:27.358Z,0.53
2023-04-01T04:51:55.145Z,0.53
2023-04-01T04:54:23.486Z,0.57
2023-04-01T04:56:53.910Z,0.60
2023-04-01T04:59:22.051Z,0.50
2023-04-01T05:01:51.252Z,0.40
2023-04-01T05:04:18.952Z,0.50
2023-04-01T05:06:46.706Z,0.60
2023-04-01T05:09:14.830Z,0.60
2023-04-01T05:11:42.650Z,0.50
2023-04-01T05:14:15.192Z,0.50
2023-04-01T05:16:43.222Z,0.70
2023-04-01T05:19:12.396Z,0.50
2023-04-01T05:21:40.119Z,0.50
2023-04-01T05:24:10.518Z,0.70
2023-04-01T05:26:39.428Z,0.40
2023-04-01T05:29:09.777Z,0.40
2023-04-01T05:31:39.109Z,0.50
2023-04-01T05:34:07.161Z,0.47
2023-04-01T05:36:36.783Z,0.60
2023-04-01T05:39:06.037Z,0.50
2023-04-01T05:41:34.148Z,0.50
2023-04-01T05:44:02.823Z,0.50
2023-04-01T05:46:30.798Z,0.73
2023-04-01T05:48:59.234Z,0.50
2023-04-01T05:51:27.281Z,0.50
2023-04-01T05:53:56.629Z,0.53
2023-04-01T05:56:24.599Z,0.60
2023-04-01T05:58:54.021Z,0.50
2023-04-01T06:01:22.010Z,0.70
2023-04-01T06:03:49.824Z,0.50
2023-04-01T06:06:25.525Z,0.50
2023-04-01T06:08:54.453Z,0.60
2023-04-01T06:11:34.832Z,0.50
2023-04-01T06:14:16.225Z,0.50
2023-04-01T06:16:57.492Z,0.50
2023-04-01T06:19:34.989Z,0.53
2023-04-01T06:22:35.027Z,0.70
2023-04-01T06:25:31.751Z,0.70
2023-04-01T06:31:05.336Z,0.60
2023-04-01T06:33:43.587Z,0.80
2023-04-01T06:36:34.086Z,0.40
2023-04-01T06:39:22.588Z,0.60
2023-04-01T06:42:18.614Z,0.60
2023-04-01T06:44:59.401Z,0.60
2023-04-01T06:47:52.657Z,0.63
2023-04-01T06:50:26.921Z,0.40
2023-04-01T06:53:05.701Z,0.40
2023-04-01T06:55:39.175Z,0.50
2023-04-01T06:58:11.984Z,0.70
2023-04-01T07:00:43.405Z,0.63
2023-04-01T07:03:22.835Z,0.50
2023-04-01T07:05:51.594Z,0.63
2023-04-01T07:08:24.655Z,0.60
2023-04-01T07:10:58.396Z,0.67
2023-04-01T07:13:30.428Z,0.70
2023-04-01T07:16:06.483Z,0.67
2023-04-01T07:18:44.292Z,0.70
2023-04-01T07:21:24.622Z,0.70
2023-04-01T07:23:55.786Z,0.70
2023-04-01T07:26:26.185Z,0.73
2023-04-01T07:28:54.941Z,0.63
2023-04-01T07:31:36.817Z,0.77
2023-04-01T07:34:14.813Z,0.60
2023-04-01T07:36:48.618Z,0.50
2023-04-01T07:39:29.156Z,0.70
2023-04-01T07:42:04.515Z,0.67
2023-04-01T07:44:44.446Z,0.60
2023-04-01T07:47:23.804Z,1.13
2023-04-01T07:50:04.176Z,0.70
2023-04-01T07:52:38.479Z,1.10
2023-04-01T07:55:17.607Z,0.70
2023-04-01T07:57:53.630Z,0.60
2023-04-01T08:00:25.513Z,0.70
2023-04-01T08:03:17.373Z,0.70
2023-04-01T08:05:57.633Z,0.80
2023-04-01T08:08:38.006Z,0.90
2023-04-01T08:11:15.020Z,0.83
2023-04-01T08:13:50.540Z,1.00
2023-04-01T08:16:25.541Z,0.73
2023-04-01T08:19:06.452Z,0.80
2023-04-01T08:21:41.009Z,0.63
2023-04-01T08:24:20.700Z,0.70
2023-04-01T08:26:53.729Z,0.70
2023-04-01T08:29:24.619Z,0.60
2023-04-01T08:31:58.832Z,0.70
2023-04-01T08:34:29.117Z,0.90
2023-04-01T08:37:03.855Z,0.70
2023-04-01T08:39:36.649Z,0.60
2023-04-01T08:42:21.640Z,0.60
2023-04-01T08:45:16.213Z,0.70
2023-04-01T08:48:01.748Z,0.70
2023-04-01T08:50:52.211Z,0.50
2023-04-01T08:53:31.805Z,0.60
2023-04-01T08:56:14.021Z,0.77
2023-04-01T08:59:01.684Z,0.70
2023-04-01T09:01:49.869Z,0.70
2023-04-01T09:04:33.442Z,0.60
2023-04-01T09:07:10.932Z,0.70
2023-04-01T09:10:09.753Z,0.77
2023-04-01T09:13:08.169Z,0.70
2023-04-01T09:15:56.049Z,0.53
2023-04-01T09:18:50.314Z,0.70
2023-04-01T09:21:31.880Z,0.80
2023-04-01T09:24:37.678Z,0.80
2023-04-01T09:27:11.959Z,0.80
2023-04-01T09:29:58.570Z,1.10
2023-04-01T09:32:53.301Z,0.80
2023-04-01T09:35:27.577Z,0.67
2023-04-01T09:38:02.538Z,0.70
2023-04-01T09:40:46.203Z,0.70
2023-04-01T09:43:53.168Z,0.60
2023-04-01T09:46:27.370Z,1.10
2023-04-01T09:49:23.542Z,0.87
2023-04-01T09:52:22.230Z,0.70
2023-04-01T09:55:08.496Z,0.60
2023-04-01T09:58:14.206Z,0.70
2023-04-01T10:01:01.300Z,0.70
2023-04-01T10:04:02.416Z,0.80
2023-04-01T10:09:45.278Z,0.60
2023-04-01T10:12:54.562Z,0.60
2023-04-01T10:15:57.118Z,0.60
2023-04-01T10:18:48.467Z,0.60
2023-04-01T10:21:56.186Z,0.60
2023-04-01T10:24:52.185Z,0.70
2023-04-01T10:28:07.623Z,1.60
2023-04-01T10:31:12.281Z,1.40
2023-04-01T10:34:12.480Z,1.90
2023-04-01T10:36:59.053Z,0.80
2023-04-01T10:40:03.354Z,0.60
2023-04-01T10:42:51.771Z,0.90
2023-04-01T10:45:55.445Z,1.33
2023-04-01T10:48:52.632Z,2.07
2023-04-01T10:51:56.529Z,1.50
2023-04-01T10:54:45.479Z,0.70
2023-04-01T10:57:31.427Z,0.80
2023-04-01T11:00:26.388Z,0.83
2023-04-01T11:03:46.357Z,0.90
2023-04-01T11:06:51.321Z,2.77
2023-04-01T11:09:47.484Z,1.07
2023-04-01T11:12:59.546Z,1.50
2023-04-01T11:15:37.405Z,0.93
2023-04-01T11:18:46.100Z,0.80
2023-04-01T11:22:11.320Z,0.80
2023-04-01T11:25:02.573Z,0.80
2023-04-01T11:27:44.348Z,1.10
2023-04-01T11:30:22.438Z,0.90
2023-04-01T11:32:56.705Z,0.70
2023-04-01T11:35:59.498Z,0.60
2023-04-01T11:38:53.519Z,0.80
2023-04-01T11:41:30.056Z,0.60
2023-04-01T11:44:14.118Z,0.70
2023-04-01T11:46:51.845Z,0.70
2023-04-01T11:49:31.805Z,1.00
2023-04-01T11:52:36.062Z,0.80
2023-04-01T11:55:34.330Z,0.70
2023-04-01T11:58:21.426Z,0.70
2023-04-01T12:01:11.766Z,0.60
2023-04-01T12:03:52.791Z,0.70
2023-04-01T12:06:25.595Z,0.80
2023-04-01T12:08:59.624Z,0.90
2023-04-01T12:11:36.122Z,0.80
2023-04-01T12:14:14.308Z,0.90
2023-04-01T12:16:54.363Z,0.80
2023-04-01T12:19:31.606Z,0.90
2023-04-01T12:22:12.858Z,0.90
2023-04-01T12:24:49.076Z,0.80
2023-04-01T12:27:28.920Z,0.83
2023-04-01T12:30:17.573Z,1.00
2023-04-01T12:32:52.591Z,1.10
2023-04-01T12:35:26.085Z,2.00
2023-04-01T12:38:21.697Z,0.90
2023-04-01T12:41:12.072Z,5.00
2023-04-01T12:44:09.056Z,1.50
2023-04-01T12:46:47.792Z,1.67
2023-04-01T12:49:36.906Z,1.73
2023-04-01T12:52:13.655Z,1.20
2023-04-01T12:55:20.103Z,1.33
2023-04-01T12:58:08.497Z,1.23
2023-04-01T13:01:00.352Z,1.53
2023-04-01T13:03:50.744Z,1.00
2023-04-01T13:06:34.856Z,1.20
2023-04-01T13:09:17.873Z,2.23
2023-04-01T13:11:57.683Z,1.33
2023-04-01T13:14:59.282Z,1.17
2023-04-01T13:19:58.022Z,1.17
2023-04-01T13:22:41.950Z,1.30
2023-04-01T13:25:22.187Z,1.60
2023-04-01T13:27:53.692Z,2.67
2023-04-01T13:30:28.668Z,1.93
2023-04-01T13:33:04.038Z,1.40
2023-04-01T13:35:41.456Z,1.37
2023-04-01T13:38:24.369Z,1.10
2023-04-01T13:41:04.377Z,1.20
2023-04-01T13:43:36.829Z,1.30
2023-04-01T13:46:27.969Z,1.23
2023-04-01T13:49:21.546Z,1.40
2023-04-01T13:52:26.559Z,1.23
2023-04-01T13:55:28.408Z,1.37
2023-04-01T13:58:23.712Z,1.20
2023-04-01T14:01:08.849Z,1.27
2023-04-01T14:04:06.096Z,1.20
2023-04-01T14:06:42.584Z,1.10
2023-04-01T14:09:27.527Z,1.40
2023-04-01T14:12:04.714Z,1.07
2023-04-01T14:14:42.208Z,1.20
2023-04-01T14:17:24.578Z,1.20
2023-04-01T14:20:04.900Z,1.37
2023-04-01T14:22:39.718Z,2.23
2023-04-01T14:25:35.014Z,1.33
2023-04-01T14:28:14.269Z,1.60
2023-04-01T14:31:03.222Z,1.80
2023-04-01T14:33:44.629Z,1.70
2023-04-01T14:36:44.107Z,1.60
2023-04-01T14:39:32.225Z,1.70
2023-04-01T14:42:21.511Z,1.30
2023-04-01T14:45:08.622Z,1.30
2023-04-01T14:47:49.967Z,1.43
2023-04-01T14:50:20.888Z,1.07
2023-04-01T14:53:00.678Z,1.47
2023-04-01T14:55:36.618Z,1.40
2023-04-01T14:58:13.492Z,1.43
2023-04-01T15:00:52.816Z,1.30
2023-04-01T15:03:25.716Z,1.43
2023-04-01T15:05:58.624Z,1.13
2023-04-01T15:08:29.822Z,1.20
2023-04-01T15:11:27.902Z,1.10
2023-04-01T15:14:23.021Z,1.23
2023-04-01T15:17:00.195Z,1.40
2023-04-01T15:19:38.346Z,1.80
2023-04-01T15:22:28.276Z,1.10
2023-04-01T15:25:13.142Z,1.10
2023-04-01T15:27:51.354Z,1.00
2023-04-01T15:30:34.727Z,1.27
2023-04-01T15:33:21.532Z,0.90
2023-04-01T15:35:54.390Z,1.03
2023-04-01T15:38:43.743Z,1.13
2023-04-01T15:41:17.983Z,1.63
2023-04-01T15:43:46.859Z,1.90
2023-04-01T15:46:28.762Z,2.00
2023-04-01T15:49:11.200Z,1.53
2023-04-01T15:51:50.682Z,1.40
2023-04-01T15:54:29.574Z,1.30
2023-04-01T15:57:15.571Z,1.17
2023-04-01T16:00:01.028Z,1.10
2023-04-01T16:02:35.532Z,1.20
2023-04-01T16:05:13.750Z,1.30
2023-04-01T16:08:12.920Z,1.20
2023-04-01T16:10:54.697Z,1.50
2023-04-01T16:13:36.353Z,1.40
2023-04-01T16:16:16.178Z,1.50
2023-04-01T16:19:14.383Z,1.97
2023-04-01T16:21:51.299Z,1.20
2023-04-01T16:24:25.550Z,1.07
2023-04-01T16:26:58.290Z,1.20
2023-04-01T16:29:37.525Z,1.10
2023-04-01T16:32:39.755Z,1.00
2023-04-01T16:35:25.358Z,1.20
2023-04-01T16:37:58.609Z,1.20
2023-04-01T16:40:37.660Z,1.10
2023-04-01T16:43:18.361Z,1.17
2023-04-01T16:45:55.334Z,1.40
2023-04-01T16:48:29.471Z,1.50
2023-04-01T16:51:01.999Z,1.27
2023-04-01T16:53:42.609Z,1.40
2023-04-01T16:56:17.653Z,1.40
2023-04-01T16:58:57.930Z,1.60
2023-04-01T17:01:31.930Z,1.70
2023-04-01T17:04:07.069Z,1.47
2023-04-01T17:06:41.689Z,1.70
2023-04-01T17:09:27.442Z,1.73
2023-04-01T17:11:59.438Z,1.70
2023-04-01T17:14:32.015Z,1.80
2023-04-01T17:17:14.117Z,2.00
2023-04-01T17:19:52.271Z,1.80
2023-04-01T17:22:30.042Z,1.80
2023-04-01T17:25:16.241Z,1.50
2023-04-01T17:27:53.054Z,1.30
2023-04-01T17:30:30.617Z,1.20
2023-04-01T17:33:21.917Z,1.40
2023-04-01T17:35:57.876Z,1.20
2023-04-01T17:38:49.811Z,0.90
2023-04-01T17:41:31.182Z,0.90
2023-04-01T17:44:10.177Z,0.80
2023-04-01T17:47:04.327Z,0.80
2023-04-01T17:49:40.332Z,0.87
2023-04-01T17:52:19.423Z,0.80
2023-04-01T17:54:52.938Z,0.90
2023-04-01T17:57:44.399Z,0.73
2023-04-01T18:00:30.115Z,0.80
2023-04-01T18:03:14.835Z,0.80
2023-04-01T18:06:06.154Z,0.83
2023-04-01T18:08:52.577Z,0.80
2023-04-01T18:11:36.418Z,0.90
2023-04-01T18:14:31.092Z,0.97
2023-04-01T18:17:14.802Z,0.90
2023-04-01T18:19:54.344Z,1.00
2023-04-01T18:22:28.060Z,0.70
2023-04-01T18:25:00.880Z,0.90
2023-04-01T18:27:34.013Z,0.60
2023-04-01T18:30:15.052Z,0.80
2023-04-01T18:32:50.480Z,0.80
2023-04-01T18:35:34.842Z,0.80
2023-04-01T18:38:08.488Z,1.03
2023-04-01T18:40:39.608Z,0.90
2023-04-01T18:43:17.251Z,0.90
2023-04-01T18:45:52.844Z,0.90
2023-04-01T18:48:39.497Z,1.83
2023-04-01T18:51:16.022Z,0.77
2023-04-01T18:53:48.646Z,0.83
2023-04-01T18:56:25.143Z,0.87
2023-04-01T18:59:01.585Z,0.70
2023-04-01T19:01:39.878Z,0.90
2023-04-01T19:04:16.806Z,0.70
2023-04-01T19:06:49.477Z,0.80
2023-04-01T19:09:26.897Z,0.77
2023-04-01T19:12:22.674Z,0.70
2023-04-01T19:15:02.121Z,0.90
2023-04-01T19:17:46.957Z,1.00
2023-04-01T19:20:22.642Z,0.73
2023-04-01T19:23:27.660Z,0.93
2023-04-01T19:25:59.027Z,0.90
2023-04-01T19:28:37.660Z,0.90
2023-04-01T19:31:14.399Z,0.90
2023-04-01T19:33:54.810Z,0.80
2023-04-01T19:36:29.017Z,0.70
2023-04-01T19:39:09.521Z,0.70
2023-04-01T19:41:42.708Z,0.70
2023-04-01T19:44:32.437Z,0.57
2023-04-01T19:47:04.559Z,0.70
2023-04-01T19:49:45.517Z,0.53
2023-04-01T19:52:19.639Z,0.80
2023-04-01T19:54:54.197Z,0.73
2023-04-01T19:57:32.235Z,0.70
2023-04-01T20:00:06.762Z,0.80
2023-04-01T20:02:53.046Z,0.80
2023-04-01T20:05:32.474Z,0.70
2023-04-01T20:08:05.001Z,0.70
2023-04-01T20:10:38.919Z,0.60
2023-04-01T20:13:13.947Z,0.50
2023-04-01T20:15:45.600Z,0.60
2023-04-01T20:18:18.466Z,0.70
2023-04-01T20:20:57.256Z,0.70
2023-04-01T20:23:37.255Z,0.70
2023-04-01T20:26:08.694Z,0.70
2023-04-01T20:28:44.804Z,0.50
2023-04-01T20:31:33.391Z,0.60
2023-04-01T20:34:17.336Z,0.50
2023-04-01T20:37:00.946Z,0.70
2023-04-01T20:39:50.196Z,0.90
2023-04-01T20:42:29.902Z,0.90
2023-04-01T20:45:16.297Z,1.00
2023-04-01T20:48:01.684Z,1.10
2023-04-01T20:50:31.975Z,1.23
2023-04-01T20:53:07.820Z,1.30
2023-04-01T20:56:15.030Z,1.20
2023-04-01T20:59:37.978Z,1.20
2023-04-01T21:02:23.149Z,1.10
2023-04-01T21:05:16.887Z,0.90
2023-04-01T21:07:49.730Z,1.00
2023-04-01T21:10:30.317Z,0.80
2023-04-01T21:13:06.048Z,1.00
2023-04-01T21:15:53.587Z,0.90
2023-04-01T21:18:44.816Z,1.00
2023-04-01T21:21:35.503Z,0.90
2023-04-01T21:24:26.377Z,0.90
2023-04-01T21:29:50.087Z,1.03
2023-04-01T21:32:33.533Z,0.87
2023-04-01T21:35:10.708Z,1.23
2023-04-01T21:37:47.575Z,0.90
2023-04-01T21:40:41.760Z,1.00
2023-04-01T21:43:24.923Z,1.00
2023-04-01T21:46:25.210Z,1.10
2023-04-01T21:50:47.748Z,1.20
2023-04-01T21:53:39.010Z,1.17
2023-04-01T21:56:45.421Z,1.20
2023-04-01T22:00:41.092Z,1.00
2023-04-01T22:03:31.427Z,1.10
2023-04-01T22:06:08.239Z,1.10
2023-04-01T22:08:47.870Z,1.20
2023-04-01T22:11:26.386Z,1.10
2023-04-01T22:14:02.495Z,1.30
2023-04-01T22:19:20.945Z,1.33
2023-04-01T22:22:02.434Z,1.40
2023-04-01T22:24:43.002Z,1.07
2023-04-01T22:27:20.998Z,1.00
2023-04-01T22:30:53.154Z,0.90
2023-04-01T22:33:28.588Z,0.97
2023-04-01T22:36:04.729Z,1.00
2023-04-01T22:38:47.460Z,1.10
2023-04-01T22:41:23.278Z,1.20
2023-04-01T22:43:52.378Z,1.17
2023-04-01T22:46:35.002Z,1.00
2023-04-01T22:49:10.829Z,1.10
2023-04-01T22:51:46.012Z,1.10
2023-04-01T22:54:20.968Z,1.20
2023-04-01T22:56:54.139Z,1.00
2023-04-01T22:59:28.124Z,1.20
2023-04-01T23:02:01.851Z,0.90
2023-04-01T23:04:34.446Z,1.10
2023-04-01T23:07:06.206Z,1.10
2023-04-01T23:09:37.564Z,1.03
2023-04-01T23:12:08.648Z,1.10
2023-04-01T23:14:47.341Z,1.10
2023-04-01T23:17:34.545Z,1.10
2023-04-01T23:20:12.304Z,1.10
2023-04-01T23:22:49.771Z,1.23
2023-04-01T23:25:30.225Z,1.20
2023-04-01T23:28:07.876Z,1.23
2023-04-01T23:30:50.781Z,1.20
2023-04-01T23:33:25.704Z,1.00
2023-04-01T23:35:55.438Z,1.03
2023-04-01T23:38:25.143Z,1.10
2023-04-01T23:40:56.037Z,0.97
2023-04-01T23:43:28.540Z,1.10
2023-04-01T23:45:58.173Z,1.00
2023-04-01T23:48:31.396Z,1.03
2023-04-01T23:51:00.391Z,1.10
2023-04-01T23:53:32.511Z,1.20
2023-04-01T23:56:01.201Z,1.40
2023-04-01T23:58:40.788Z,1.10
